sensor_id;sensor_type;location;lat;lon;timestamp;P1;durP1;ratioP1;P2;durP2;ratioP2
35418;SDS011;21525;41.240;16.500;2023-09-07T00:01:08;13.65;;;9.30;;
35418;SDS011;21525;41.240;16.500;2023-09-07T00:03:34;12.82;;;8.52;;
35418;SDS011;21525;41.240;16.500;2023-09-07T00:06:00;11.07;;;8.52;;
35418;SDS011;21525;41.240;16.500;2023-09-07T00:08:25;12.38;;;8.48;;
35418;SDS011;21525;41.240;16.500;2023-09-07T00:10:51;13.35;;;8.57;;
35418;SDS011;21525;41.240;16.500;2023-09-07T00:13:17;13.43;;;7.85;;
35418;SDS011;21525;41.240;16.500;2023-09-07T00:15:43;11.82;;;8.35;;
35418;SDS011;21525;41.240;16.500;2023-09-07T00:18:08;14.38;;;8.60;;
35418;SDS011;21525;41.240;16.500;2023-09-07T00:20:35;12.68;;;8.75;;
35418;SDS011;21525;41.240;16.500;2023-09-07T00:23:01;10.80;;;8.23;;
35418;SDS011;21525;41.240;16.500;2023-09-07T00:25:27;14.35;;;7.35;;
35418;SDS011;21525;41.240;16.500;2023-09-07T00:27:52;11.77;;;7.68;;
35418;SDS011;21525;41.240;16.500;2023-09-07T00:30:18;13.60;;;7.90;;
35418;SDS011;21525;41.240;16.500;2023-09-07T00:32:44;10.98;;;7.85;;
35418;SDS011;21525;41.240;16.500;2023-09-07T00:35:09;10.20;;;7.43;;
35418;SDS011;21525;41.240;16.500;2023-09-07T00:37:36;10.13;;;7.82;;
35418;SDS011;21525;41.240;16.500;2023-09-07T00:40:02;16.55;;;7.72;;
35418;SDS011;21525;41.240;16.500;2023-09-07T00:42:29;9.80;;;6.70;;
35418;SDS011;21525;41.240;16.500;2023-09-07T00:44:55;12.95;;;7.78;;
35418;SDS011;21525;41.240;16.500;2023-09-07T00:47:21;10.75;;;6.65;;
35418;SDS011;21525;41.240;16.500;2023-09-07T00:49:48;10.90;;;7.18;;
35418;SDS011;21525;41.240;16.500;2023-09-07T00:52:14;9.65;;;7.10;;
35418;SDS011;21525;41.240;16.500;2023-09-07T00:54:40;11.77;;;7.65;;
35418;SDS011;21525;41.240;16.500;2023-09-07T00:57:07;9.73;;;6.43;;
35418;SDS011;21525;41.240;16.500;2023-09-07T00:59:34;10.50;;;7.18;;
35418;SDS011;21525;41.240;16.500;2023-09-07T01:02:00;11.77;;;6.50;;
35418;SDS011;21525;41.240;16.500;2023-09-07T01:04:25;11.82;;;6.88;;
35418;SDS011;21525;41.240;16.500;2023-09-07T01:07:02;10.40;;;6.38;;
35418;SDS011;21525;41.240;16.500;2023-09-07T01:09:34;11.30;;;6.25;;
35418;SDS011;21525;41.240;16.500;2023-09-07T01:12:02;10.17;;;6.23;;
35418;SDS011;21525;41.240;16.500;2023-09-07T01:14:28;9.25;;;5.97;;
35418;SDS011;21525;41.240;16.500;2023-09-07T01:16:54;11.80;;;6.45;;
35418;SDS011;21525;41.240;16.500;2023-09-07T01:19:20;8.38;;;6.13;;
35418;SDS011;21525;41.240;16.500;2023-09-07T01:21:46;11.32;;;6.57;;
35418;SDS011;21525;41.240;16.500;2023-09-07T01:24:12;14.20;;;6.38;;
35418;SDS011;21525;41.240;16.500;2023-09-07T01:26:39;7.95;;;5.55;;
35418;SDS011;21525;41.240;16.500;2023-09-07T01:29:06;10.55;;;6.50;;
35418;SDS011;21525;41.240;16.500;2023-09-07T01:31:34;9.85;;;5.78;;
35418;SDS011;21525;41.240;16.500;2023-09-07T01:34:01;8.63;;;5.45;;
35418;SDS011;21525;41.240;16.500;2023-09-07T01:36:27;9.63;;;5.57;;
35418;SDS011;21525;41.240;16.500;2023-09-07T01:38:53;9.02;;;5.88;;
35418;SDS011;21525;41.240;16.500;2023-09-07T01:41:19;10.02;;;5.65;;
35418;SDS011;21525;41.240;16.500;2023-09-07T01:43:44;11.90;;;5.47;;
35418;SDS011;21525;41.240;16.500;2023-09-07T01:46:12;9.93;;;5.30;;
35418;SDS011;21525;41.240;16.500;2023-09-07T01:48:37;10.07;;;5.38;;
35418;SDS011;21525;41.240;16.500;2023-09-07T01:51:03;15.27;;;6.30;;
35418;SDS011;21525;41.240;16.500;2023-09-07T01:53:29;10.52;;;6.15;;
35418;SDS011;21525;41.240;16.500;2023-09-07T01:55:55;12.32;;;6.90;;
35418;SDS011;21525;41.240;16.500;2023-09-07T01:58:21;14.40;;;9.90;;
35418;SDS011;21525;41.240;16.500;2023-09-07T02:00:49;9.73;;;6.35;;
35418;SDS011;21525;41.240;16.500;2023-09-07T02:03:15;12.27;;;6.18;;
35418;SDS011;21525;41.240;16.500;2023-09-07T02:05:41;8.57;;;5.70;;
35418;SDS011;21525;41.240;16.500;2023-09-07T02:08:09;11.73;;;6.60;;
35418;SDS011;21525;41.240;16.500;2023-09-07T02:10:34;8.93;;;5.72;;
35418;SDS011;21525;41.240;16.500;2023-09-07T02:13:00;12.50;;;5.78;;
35418;SDS011;21525;41.240;16.500;2023-09-07T02:15:26;10.73;;;6.13;;
35418;SDS011;21525;41.240;16.500;2023-09-07T02:17:52;12.48;;;6.47;;
35418;SDS011;21525;41.240;16.500;2023-09-07T02:20:20;11.73;;;6.82;;
35418;SDS011;21525;41.240;16.500;2023-09-07T02:22:46;14.30;;;7.10;;
35418;SDS011;21525;41.240;16.500;2023-09-07T02:25:12;12.43;;;5.60;;
35418;SDS011;21525;41.240;16.500;2023-09-07T02:27:37;11.30;;;5.93;;
35418;SDS011;21525;41.240;16.500;2023-09-07T02:30:05;11.25;;;6.13;;
35418;SDS011;21525;41.240;16.500;2023-09-07T02:32:31;11.82;;;5.57;;
35418;SDS011;21525;41.240;16.500;2023-09-07T02:34:57;12.50;;;5.85;;
35418;SDS011;21525;41.240;16.500;2023-09-07T02:37:23;11.65;;;5.60;;
35418;SDS011;21525;41.240;16.500;2023-09-07T02:39:49;13.82;;;5.72;;
35418;SDS011;21525;41.240;16.500;2023-09-07T02:42:15;10.95;;;5.47;;
35418;SDS011;21525;41.240;16.500;2023-09-07T02:44:41;12.18;;;6.30;;
35418;SDS011;21525;41.240;16.500;2023-09-07T02:47:06;10.93;;;6.13;;
35418;SDS011;21525;41.240;16.500;2023-09-07T02:49:33;10.27;;;5.80;;
35418;SDS011;21525;41.240;16.500;2023-09-07T02:51:59;10.95;;;5.55;;
35418;SDS011;21525;41.240;16.500;2023-09-07T02:54:24;10.10;;;5.45;;
35418;SDS011;21525;41.240;16.500;2023-09-07T02:56:50;10.13;;;6.00;;
35418;SDS011;21525;41.240;16.500;2023-09-07T02:59:16;10.77;;;5.68;;
35418;SDS011;21525;41.240;16.500;2023-09-07T03:01:42;11.85;;;5.68;;
35418;SDS011;21525;41.240;16.500;2023-09-07T03:04:08;10.63;;;5.80;;
35418;SDS011;21525;41.240;16.500;2023-09-07T03:06:34;11.57;;;6.05;;
35418;SDS011;21525;41.240;16.500;2023-09-07T03:09:00;13.50;;;5.82;;
35418;SDS011;21525;41.240;16.500;2023-09-07T03:11:27;13.93;;;6.47;;
35418;SDS011;21525;41.240;16.500;2023-09-07T03:13:59;9.38;;;5.35;;
35418;SDS011;21525;41.240;16.500;2023-09-07T03:16:25;11.80;;;5.43;;
35418;SDS011;21525;41.240;16.500;2023-09-07T03:18:51;11.10;;;5.50;;
35418;SDS011;21525;41.240;16.500;2023-09-07T03:21:17;13.32;;;6.00;;
35418;SDS011;21525;41.240;16.500;2023-09-07T03:23:42;11.23;;;5.85;;
35418;SDS011;21525;41.240;16.500;2023-09-07T03:26:11;20.15;;;7.00;;
35418;SDS011;21525;41.240;16.500;2023-09-07T03:28:38;13.98;;;6.40;;
35418;SDS011;21525;41.240;16.500;2023-09-07T03:31:04;13.40;;;5.70;;
35418;SDS011;21525;41.240;16.500;2023-09-07T03:33:30;11.10;;;6.00;;
35418;SDS011;21525;41.240;16.500;2023-09-07T03:35:56;10.68;;;7.20;;
35418;SDS011;21525;41.240;16.500;2023-09-07T03:38:24;10.45;;;5.78;;
35418;SDS011;21525;41.240;16.500;2023-09-07T03:40:50;14.23;;;6.25;;
35418;SDS011;21525;41.240;16.500;2023-09-07T03:43:18;7.82;;;5.50;;
35418;SDS011;21525;41.240;16.500;2023-09-07T03:45:44;10.65;;;5.68;;
35418;SDS011;21525;41.240;16.500;2023-09-07T03:48:10;11.18;;;5.80;;
35418;SDS011;21525;41.240;16.500;2023-09-07T03:50:37;12.40;;;5.90;;
35418;SDS011;21525;41.240;16.500;2023-09-07T03:53:03;11.45;;;5.75;;
35418;SDS011;21525;41.240;16.500;2023-09-07T03:55:29;14.75;;;6.97;;
35418;SDS011;21525;41.240;16.500;2023-09-07T03:57:55;10.00;;;5.95;;
35418;SDS011;21525;41.240;16.500;2023-09-07T04:00:21;13.35;;;6.78;;
35418;SDS011;21525;41.240;16.500;2023-09-07T04:02:49;16.05;;;6.28;;
35418;SDS011;21525;41.240;16.500;2023-09-07T04:05:15;11.93;;;6.25;;
35418;SDS011;21525;41.240;16.500;2023-09-07T04:07:40;11.77;;;5.78;;
35418;SDS011;21525;41.240;16.500;2023-09-07T04:10:06;13.57;;;6.10;;
35418;SDS011;21525;41.240;16.500;2023-09-07T04:12:32;13.60;;;6.55;;
35418;SDS011;21525;41.240;16.500;2023-09-07T04:14:59;15.55;;;6.82;;
35418;SDS011;21525;41.240;16.500;2023-09-07T04:19:53;13.45;;;6.70;;
35418;SDS011;21525;41.240;16.500;2023-09-07T04:22:18;13.32;;;6.07;;
35418;SDS011;21525;41.240;16.500;2023-09-07T04:24:47;17.08;;;7.07;;
35418;SDS011;21525;41.240;16.500;2023-09-07T04:27:14;13.50;;;7.18;;
35418;SDS011;21525;41.240;16.500;2023-09-07T04:29:40;12.63;;;6.32;;
35418;SDS011;21525;41.240;16.500;2023-09-07T04:32:05;10.60;;;6.70;;
35418;SDS011;21525;41.240;16.500;2023-09-07T04:34:31;18.80;;;6.57;;
35418;SDS011;21525;41.240;16.500;2023-09-07T04:36:57;14.45;;;6.13;;
35418;SDS011;21525;41.240;16.500;2023-09-07T04:39:23;14.00;;;6.75;;
35418;SDS011;21525;41.240;16.500;2023-09-07T04:41:49;10.20;;;5.60;;
35418;SDS011;21525;41.240;16.500;2023-09-07T04:44:15;21.60;;;6.55;;
35418;SDS011;21525;41.240;16.500;2023-09-07T04:46:41;17.90;;;7.45;;
35418;SDS011;21525;41.240;16.500;2023-09-07T04:49:08;14.57;;;6.40;;
35418;SDS011;21525;41.240;16.500;2023-09-07T04:51:34;14.45;;;6.28;;
35418;SDS011;21525;41.240;16.500;2023-09-07T04:54:00;15.80;;;6.03;;
35418;SDS011;21525;41.240;16.500;2023-09-07T04:56:26;13.85;;;7.18;;
35418;SDS011;21525;41.240;16.500;2023-09-07T04:58:53;17.50;;;6.95;;
35418;SDS011;21525;41.240;16.500;2023-09-07T05:01:19;12.45;;;6.18;;
35418;SDS011;21525;41.240;16.500;2023-09-07T05:03:45;13.15;;;6.60;;
35418;SDS011;21525;41.240;16.500;2023-09-07T05:06:11;12.23;;;5.80;;
35418;SDS011;21525;41.240;16.500;2023-09-07T05:08:37;16.55;;;6.30;;
35418;SDS011;21525;41.240;16.500;2023-09-07T05:11:03;13.35;;;6.15;;
35418;SDS011;21525;41.240;16.500;2023-09-07T05:13:30;12.75;;;6.40;;
35418;SDS011;21525;41.240;16.500;2023-09-07T05:15:58;17.45;;;6.65;;
35418;SDS011;21525;41.240;16.500;2023-09-07T05:18:25;16.17;;;7.85;;
35418;SDS011;21525;41.240;16.500;2023-09-07T05:20:51;19.10;;;8.63;;
35418;SDS011;21525;41.240;16.500;2023-09-07T05:23:18;20.13;;;8.75;;
35418;SDS011;21525;41.240;16.500;2023-09-07T05:25:46;21.35;;;10.02;;
35418;SDS011;21525;41.240;16.500;2023-09-07T05:30:43;19.90;;;10.15;;
35418;SDS011;21525;41.240;16.500;2023-09-07T05:33:10;21.48;;;10.70;;
35418;SDS011;21525;41.240;16.500;2023-09-07T05:35:37;29.88;;;11.77;;
35418;SDS011;21525;41.240;16.500;2023-09-07T05:38:04;35.03;;;13.05;;
35418;SDS011;21525;41.240;16.500;2023-09-07T05:40:40;27.35;;;12.35;;
35418;SDS011;21525;41.240;16.500;2023-09-07T05:43:08;23.10;;;11.35;;
35418;SDS011;21525;41.240;16.500;2023-09-07T05:45:35;26.00;;;10.35;;
35418;SDS011;21525;41.240;16.500;2023-09-07T05:48:06;26.30;;;11.30;;
35418;SDS011;21525;41.240;16.500;2023-09-07T05:50:36;27.27;;;10.60;;
35418;SDS011;21525;41.240;16.500;2023-09-07T05:53:03;27.33;;;10.90;;
35418;SDS011;21525;41.240;16.500;2023-09-07T05:55:30;25.05;;;11.02;;
35418;SDS011;21525;41.240;16.500;2023-09-07T05:57:56;30.67;;;12.02;;
35418;SDS011;21525;41.240;16.500;2023-09-07T06:00:24;23.35;;;10.88;;
35418;SDS011;21525;41.240;16.500;2023-09-07T06:02:50;23.75;;;11.70;;
35418;SDS011;21525;41.240;16.500;2023-09-07T06:05:16;23.38;;;11.35;;
35418;SDS011;21525;41.240;16.500;2023-09-07T06:07:44;28.42;;;12.40;;
35418;SDS011;21525;41.240;16.500;2023-09-07T06:10:11;28.23;;;13.07;;
35418;SDS011;21525;41.240;16.500;2023-09-07T06:12:37;26.70;;;12.25;;
35418;SDS011;21525;41.240;16.500;2023-09-07T06:15:03;23.10;;;12.52;;
35418;SDS011;21525;41.240;16.500;2023-09-07T06:17:31;26.90;;;11.98;;
35418;SDS011;21525;41.240;16.500;2023-09-07T06:19:57;23.65;;;11.75;;
35418;SDS011;21525;41.240;16.500;2023-09-07T06:22:24;26.20;;;14.50;;
35418;SDS011;21525;41.240;16.500;2023-09-07T06:24:50;33.65;;;13.77;;
35418;SDS011;21525;41.240;16.500;2023-09-07T06:27:17;26.50;;;13.50;;
35418;SDS011;21525;41.240;16.500;2023-09-07T06:29:42;31.27;;;12.82;;
35418;SDS011;21525;41.240;16.500;2023-09-07T06:32:08;24.63;;;13.05;;
35418;SDS011;21525;41.240;16.500;2023-09-07T06:34:34;28.75;;;12.23;;
35418;SDS011;21525;41.240;16.500;2023-09-07T06:37:01;27.35;;;11.60;;
35418;SDS011;21525;41.240;16.500;2023-09-07T06:39:27;18.60;;;10.00;;
35418;SDS011;21525;41.240;16.500;2023-09-07T06:41:53;20.02;;;9.05;;
35418;SDS011;21525;41.240;16.500;2023-09-07T06:44:21;27.05;;;9.82;;
35418;SDS011;21525;41.240;16.500;2023-09-07T06:46:48;26.95;;;10.70;;
35418;SDS011;21525;41.240;16.500;2023-09-07T06:49:16;19.85;;;8.73;;
35418;SDS011;21525;41.240;16.500;2023-09-07T06:51:42;21.45;;;9.80;;
35418;SDS011;21525;41.240;16.500;2023-09-07T06:54:08;21.15;;;9.13;;
35418;SDS011;21525;41.240;16.500;2023-09-07T06:56:35;22.30;;;9.15;;
35418;SDS011;21525;41.240;16.500;2023-09-07T06:59:01;20.95;;;9.38;;
35418;SDS011;21525;41.240;16.500;2023-09-07T07:01:27;17.17;;;9.18;;
35418;SDS011;21525;41.240;16.500;2023-09-07T07:03:53;23.55;;;8.70;;
35418;SDS011;21525;41.240;16.500;2023-09-07T07:06:20;19.17;;;8.82;;
35418;SDS011;21525;41.240;16.500;2023-09-07T07:08:46;23.45;;;9.35;;
35418;SDS011;21525;41.240;16.500;2023-09-07T07:11:12;26.13;;;10.35;;
35418;SDS011;21525;41.240;16.500;2023-09-07T07:13:38;20.88;;;9.57;;
35418;SDS011;21525;41.240;16.500;2023-09-07T07:16:04;24.45;;;9.43;;
35418;SDS011;21525;41.240;16.500;2023-09-07T07:18:30;17.85;;;9.05;;
35418;SDS011;21525;41.240;16.500;2023-09-07T07:20:57;13.25;;;7.88;;
35418;SDS011;21525;41.240;16.500;2023-09-07T07:23:23;17.25;;;8.30;;
35418;SDS011;21525;41.240;16.500;2023-09-07T07:25:49;18.23;;;9.27;;
35418;SDS011;21525;41.240;16.500;2023-09-07T07:28:16;19.92;;;9.55;;
35418;SDS011;21525;41.240;16.500;2023-09-07T07:30:42;15.35;;;8.15;;
35418;SDS011;21525;41.240;16.500;2023-09-07T07:33:08;15.38;;;7.65;;
35418;SDS011;21525;41.240;16.500;2023-09-07T07:35:37;17.50;;;9.50;;
35418;SDS011;21525;41.240;16.500;2023-09-07T07:38:04;15.68;;;7.32;;
35418;SDS011;21525;41.240;16.500;2023-09-07T07:40:31;14.77;;;7.20;;
35418;SDS011;21525;41.240;16.500;2023-09-07T07:42:57;19.38;;;6.93;;
35418;SDS011;21525;41.240;16.500;2023-09-07T07:45:23;14.52;;;7.07;;
35418;SDS011;21525;41.240;16.500;2023-09-07T07:47:51;16.10;;;8.20;;
35418;SDS011;21525;41.240;16.500;2023-09-07T07:50:17;14.73;;;7.50;;
35418;SDS011;21525;41.240;16.500;2023-09-07T07:52:44;17.15;;;7.40;;
35418;SDS011;21525;41.240;16.500;2023-09-07T07:55:11;11.73;;;7.45;;
35418;SDS011;21525;41.240;16.500;2023-09-07T07:57:38;16.30;;;7.47;;
35418;SDS011;21525;41.240;16.500;2023-09-07T08:00:04;13.63;;;7.07;;
35418;SDS011;21525;41.240;16.500;2023-09-07T08:02:39;15.25;;;7.00;;
35418;SDS011;21525;41.240;16.500;2023-09-07T08:05:07;10.63;;;7.40;;
35418;SDS011;21525;41.240;16.500;2023-09-07T08:07:34;13.27;;;7.53;;
35418;SDS011;21525;41.240;16.500;2023-09-07T08:10:00;12.23;;;7.68;;
35418;SDS011;21525;41.240;16.500;2023-09-07T08:12:26;17.42;;;7.20;;
35418;SDS011;21525;41.240;16.500;2023-09-07T08:14:53;12.00;;;7.00;;
35418;SDS011;21525;41.240;16.500;2023-09-07T08:17:21;12.57;;;8.48;;
35418;SDS011;21525;41.240;16.500;2023-09-07T08:19:46;17.70;;;7.53;;
35418;SDS011;21525;41.240;16.500;2023-09-07T08:22:16;24.23;;;7.70;;
35418;SDS011;21525;41.240;16.500;2023-09-07T08:24:42;25.25;;;8.43;;
35418;SDS011;21525;41.240;16.500;2023-09-07T08:27:10;14.07;;;6.95;;
35418;SDS011;21525;41.240;16.500;2023-09-07T08:29:42;12.20;;;7.38;;
35418;SDS011;21525;41.240;16.500;2023-09-07T08:32:12;17.13;;;7.55;;
35418;SDS011;21525;41.240;16.500;2023-09-07T08:34:39;17.55;;;8.68;;
35418;SDS011;21525;41.240;16.500;2023-09-07T08:37:07;14.68;;;9.15;;
35418;SDS011;21525;41.240;16.500;2023-09-07T08:39:34;16.45;;;8.05;;
35418;SDS011;21525;41.240;16.500;2023-09-07T08:42:01;13.03;;;7.83;;
35418;SDS011;21525;41.240;16.500;2023-09-07T08:44:28;14.32;;;8.40;;
35418;SDS011;21525;41.240;16.500;2023-09-07T08:46:55;16.13;;;8.40;;
35418;SDS011;21525;41.240;16.500;2023-09-07T08:49:22;14.48;;;7.82;;
35418;SDS011;21525;41.240;16.500;2023-09-07T08:51:49;15.52;;;6.70;;
35418;SDS011;21525;41.240;16.500;2023-09-07T08:54:15;13.50;;;7.35;;
35418;SDS011;21525;41.240;16.500;2023-09-07T08:56:41;10.82;;;6.93;;
35418;SDS011;21525;41.240;16.500;2023-09-07T08:59:07;16.15;;;7.20;;
35418;SDS011;21525;41.240;16.500;2023-09-07T09:01:33;13.73;;;7.47;;
35418;SDS011;21525;41.240;16.500;2023-09-07T09:03:59;13.30;;;7.32;;
35418;SDS011;21525;41.240;16.500;2023-09-07T09:06:24;15.50;;;8.13;;
35418;SDS011;21525;41.240;16.500;2023-09-07T09:08:52;14.70;;;7.55;;
35418;SDS011;21525;41.240;16.500;2023-09-07T09:13:46;21.75;;;10.23;;
35418;SDS011;21525;41.240;16.500;2023-09-07T09:16:13;18.38;;;8.95;;
35418;SDS011;21525;41.240;16.500;2023-09-07T09:18:49;17.30;;;9.07;;
35418;SDS011;21525;41.240;16.500;2023-09-07T09:21:24;27.60;;;18.60;;
35418;SDS011;21525;41.240;16.500;2023-09-07T09:23:52;21.17;;;11.45;;
35418;SDS011;21525;41.240;16.500;2023-09-07T09:26:23;15.00;;;8.77;;
35418;SDS011;21525;41.240;16.500;2023-09-07T09:28:49;15.98;;;8.50;;
35418;SDS011;21525;41.240;16.500;2023-09-07T09:31:18;14.65;;;8.05;;
35418;SDS011;21525;41.240;16.500;2023-09-07T09:33:48;18.52;;;8.77;;
35418;SDS011;21525;41.240;16.500;2023-09-07T09:36:14;11.07;;;7.90;;
35418;SDS011;21525;41.240;16.500;2023-09-07T09:38:46;11.75;;;8.05;;
35418;SDS011;21525;41.240;16.500;2023-09-07T09:41:18;11.93;;;7.35;;
35418;SDS011;21525;41.240;16.500;2023-09-07T09:43:48;12.20;;;7.65;;
35418;SDS011;21525;41.240;16.500;2023-09-07T09:46:14;18.98;;;9.05;;
35418;SDS011;21525;41.240;16.500;2023-09-07T09:48:41;9.80;;;7.90;;
35418;SDS011;21525;41.240;16.500;2023-09-07T09:51:08;10.88;;;7.43;;
35418;SDS011;21525;41.240;16.500;2023-09-07T09:53:33;10.25;;;7.63;;
35418;SDS011;21525;41.240;16.500;2023-09-07T09:56:01;11.75;;;8.10;;
35418;SDS011;21525;41.240;16.500;2023-09-07T09:58:27;15.82;;;7.72;;
35418;SDS011;21525;41.240;16.500;2023-09-07T10:00:56;12.00;;;8.52;;
35418;SDS011;21525;41.240;16.500;2023-09-07T10:03:42;13.02;;;8.13;;
35418;SDS011;21525;41.240;16.500;2023-09-07T10:06:12;12.77;;;8.50;;
35418;SDS011;21525;41.240;16.500;2023-09-07T10:11:31;13.70;;;9.27;;
35418;SDS011;21525;41.240;16.500;2023-09-07T10:13:58;22.25;;;10.43;;
35418;SDS011;21525;41.240;16.500;2023-09-07T10:16:25;12.07;;;9.00;;
35418;SDS011;21525;41.240;16.500;2023-09-07T10:18:52;17.10;;;9.52;;
35418;SDS011;21525;41.240;16.500;2023-09-07T10:21:18;12.05;;;8.88;;
35418;SDS011;21525;41.240;16.500;2023-09-07T10:23:45;15.25;;;9.60;;
35418;SDS011;21525;41.240;16.500;2023-09-07T10:26:15;13.65;;;9.38;;
35418;SDS011;21525;41.240;16.500;2023-09-07T10:28:45;21.98;;;8.35;;
35418;SDS011;21525;41.240;16.500;2023-09-07T10:31:14;12.80;;;7.93;;
35418;SDS011;21525;41.240;16.500;2023-09-07T10:33:45;12.68;;;8.18;;
35418;SDS011;21525;41.240;16.500;2023-09-07T10:36:22;12.10;;;8.00;;
35418;SDS011;21525;41.240;16.500;2023-09-07T10:38:49;12.60;;;8.50;;
35418;SDS011;21525;41.240;16.500;2023-09-07T10:41:18;13.88;;;8.48;;
35418;SDS011;21525;41.240;16.500;2023-09-07T10:43:51;20.45;;;8.40;;
35418;SDS011;21525;41.240;16.500;2023-09-07T10:46:23;13.77;;;8.68;;
35418;SDS011;21525;41.240;16.500;2023-09-07T10:48:49;14.48;;;7.63;;
35418;SDS011;21525;41.240;16.500;2023-09-07T10:51:19;13.68;;;7.70;;
35418;SDS011;21525;41.240;16.500;2023-09-07T10:53:45;12.07;;;9.02;;
35418;SDS011;21525;41.240;16.500;2023-09-07T10:56:11;13.27;;;7.70;;
35418;SDS011;21525;41.240;16.500;2023-09-07T10:58:37;12.43;;;7.78;;
35418;SDS011;21525;41.240;16.500;2023-09-07T11:01:08;9.68;;;7.53;;
35418;SDS011;21525;41.240;16.500;2023-09-07T11:03:34;14.50;;;8.07;;
35418;SDS011;21525;41.240;16.500;2023-09-07T11:06:09;14.17;;;7.80;;
35418;SDS011;21525;41.240;16.500;2023-09-07T11:08:37;15.27;;;8.90;;
35418;SDS011;21525;41.240;16.500;2023-09-07T11:11:03;11.20;;;8.23;;
35418;SDS011;21525;41.240;16.500;2023-09-07T11:13:29;13.98;;;8.63;;
35418;SDS011;21525;41.240;16.500;2023-09-07T11:15:56;12.63;;;8.43;;
35418;SDS011;21525;41.240;16.500;2023-09-07T11:18:23;15.68;;;8.45;;
35418;SDS011;21525;41.240;16.500;2023-09-07T11:20:50;11.23;;;8.07;;
35418;SDS011;21525;41.240;16.500;2023-09-07T11:23:17;12.63;;;8.25;;
35418;SDS011;21525;41.240;16.500;2023-09-07T11:25:43;11.02;;;7.72;;
35418;SDS011;21525;41.240;16.500;2023-09-07T11:28:09;13.82;;;8.00;;
35418;SDS011;21525;41.240;16.500;2023-09-07T11:30:37;12.90;;;8.13;;
35418;SDS011;21525;41.240;16.500;2023-09-07T11:33:15;22.38;;;12.13;;
35418;SDS011;21525;41.240;16.500;2023-09-07T11:35:41;13.07;;;8.02;;
35418;SDS011;21525;41.240;16.500;2023-09-07T11:38:06;16.13;;;8.38;;
35418;SDS011;21525;41.240;16.500;2023-09-07T11:43:01;13.48;;;8.35;;
35418;SDS011;21525;41.240;16.500;2023-09-07T11:45:26;11.55;;;8.02;;
35418;SDS011;21525;41.240;16.500;2023-09-07T11:47:52;16.30;;;8.40;;
35418;SDS011;21525;41.240;16.500;2023-09-07T11:50:19;12.68;;;7.88;;
35418;SDS011;21525;41.240;16.500;2023-09-07T11:52:46;12.05;;;8.05;;
35418;SDS011;21525;41.240;16.500;2023-09-07T11:55:13;8.98;;;7.28;;
35418;SDS011;21525;41.240;16.500;2023-09-07T11:57:39;10.90;;;7.25;;
35418;SDS011;21525;41.240;16.500;2023-09-07T12:00:06;20.10;;;7.95;;
35418;SDS011;21525;41.240;16.500;2023-09-07T12:02:39;13.43;;;8.48;;
35418;SDS011;21525;41.240;16.500;2023-09-07T12:05:05;14.60;;;8.15;;
35418;SDS011;21525;41.240;16.500;2023-09-07T12:07:35;12.48;;;7.80;;
35418;SDS011;21525;41.240;16.500;2023-09-07T12:10:02;12.15;;;8.35;;
35418;SDS011;21525;41.240;16.500;2023-09-07T12:12:29;13.70;;;8.68;;
35418;SDS011;21525;41.240;16.500;2023-09-07T12:14:54;14.65;;;8.80;;
35418;SDS011;21525;41.240;16.500;2023-09-07T12:17:24;11.27;;;7.45;;
35418;SDS011;21525;41.240;16.500;2023-09-07T12:19:50;12.27;;;7.90;;
35418;SDS011;21525;41.240;16.500;2023-09-07T12:22:16;13.32;;;8.10;;
35418;SDS011;21525;41.240;16.500;2023-09-07T12:24:42;12.50;;;7.90;;
35418;SDS011;21525;41.240;16.500;2023-09-07T12:27:07;10.90;;;8.27;;
35418;SDS011;21525;41.240;16.500;2023-09-07T12:29:33;10.50;;;8.13;;
35418;SDS011;21525;41.240;16.500;2023-09-07T12:31:59;10.77;;;8.55;;
35418;SDS011;21525;41.240;16.500;2023-09-07T12:34:24;16.70;;;10.82;;
35418;SDS011;21525;41.240;16.500;2023-09-07T12:36:50;12.80;;;8.63;;
35418;SDS011;21525;41.240;16.500;2023-09-07T12:39:16;10.40;;;8.48;;
35418;SDS011;21525;41.240;16.500;2023-09-07T12:41:42;11.63;;;8.95;;
35418;SDS011;21525;41.240;16.500;2023-09-07T12:44:08;12.15;;;8.50;;
35418;SDS011;21525;41.240;16.500;2023-09-07T12:46:34;12.70;;;8.73;;
35418;SDS011;21525;41.240;16.500;2023-09-07T12:49:02;12.52;;;8.77;;
35418;SDS011;21525;41.240;16.500;2023-09-07T12:51:29;12.02;;;8.57;;
35418;SDS011;21525;41.240;16.500;2023-09-07T12:53:55;12.15;;;8.95;;
35418;SDS011;21525;41.240;16.500;2023-09-07T12:56:20;12.68;;;8.68;;
35418;SDS011;21525;41.240;16.500;2023-09-07T12:58:46;11.77;;;8.75;;
35418;SDS011;21525;41.240;16.500;2023-09-07T13:01:12;12.35;;;8.50;;
35418;SDS011;21525;41.240;16.500;2023-09-07T13:03:40;11.85;;;8.63;;
35418;SDS011;21525;41.240;16.500;2023-09-07T13:06:07;14.77;;;8.68;;
35418;SDS011;21525;41.240;16.500;2023-09-07T13:08:33;15.88;;;9.18;;
35418;SDS011;21525;41.240;16.500;2023-09-07T13:10:58;13.48;;;8.52;;
35418;SDS011;21525;41.240;16.500;2023-09-07T13:13:24;13.05;;;8.98;;
35418;SDS011;21525;41.240;16.500;2023-09-07T13:15:55;14.20;;;8.50;;
35418;SDS011;21525;41.240;16.500;2023-09-07T13:18:21;15.48;;;8.52;;
35418;SDS011;21525;41.240;16.500;2023-09-07T13:20:48;11.20;;;7.60;;
35418;SDS011;21525;41.240;16.500;2023-09-07T13:23:15;13.40;;;8.52;;
35418;SDS011;21525;41.240;16.500;2023-09-07T13:25:41;15.70;;;9.05;;
35418;SDS011;21525;41.240;16.500;2023-09-07T13:28:07;10.07;;;7.85;;
35418;SDS011;21525;41.240;16.500;2023-09-07T13:30:33;11.07;;;7.82;;
35418;SDS011;21525;41.240;16.500;2023-09-07T13:32:59;10.38;;;7.88;;
35418;SDS011;21525;41.240;16.500;2023-09-07T13:35:25;10.25;;;7.88;;
35418;SDS011;21525;41.240;16.500;2023-09-07T13:37:51;14.25;;;7.75;;
35418;SDS011;21525;41.240;16.500;2023-09-07T13:40:17;13.77;;;8.38;;
35418;SDS011;21525;41.240;16.500;2023-09-07T13:42:45;10.88;;;7.55;;
35418;SDS011;21525;41.240;16.500;2023-09-07T13:45:11;12.75;;;8.05;;
35418;SDS011;21525;41.240;16.500;2023-09-07T13:47:36;12.10;;;7.63;;
35418;SDS011;21525;41.240;16.500;2023-09-07T13:50:03;13.13;;;8.50;;
35418;SDS011;21525;41.240;16.500;2023-09-07T13:52:29;11.55;;;7.93;;
35418;SDS011;21525;41.240;16.500;2023-09-07T13:54:55;13.27;;;7.68;;
35418;SDS011;21525;41.240;16.500;2023-09-07T13:57:21;10.82;;;7.63;;
35418;SDS011;21525;41.240;16.500;2023-09-07T13:59:46;18.08;;;8.20;;
35418;SDS011;21525;41.240;16.500;2023-09-07T14:02:12;12.57;;;8.05;;
35418;SDS011;21525;41.240;16.500;2023-09-07T14:04:38;13.32;;;7.57;;
35418;SDS011;21525;41.240;16.500;2023-09-07T14:07:04;9.70;;;7.60;;
35418;SDS011;21525;41.240;16.500;2023-09-07T14:09:29;11.35;;;7.47;;
35418;SDS011;21525;41.240;16.500;2023-09-07T14:11:55;12.65;;;7.63;;
35418;SDS011;21525;41.240;16.500;2023-09-07T14:14:21;12.52;;;8.23;;
35418;SDS011;21525;41.240;16.500;2023-09-07T14:16:47;11.77;;;7.18;;
35418;SDS011;21525;41.240;16.500;2023-09-07T14:19:15;9.85;;;7.47;;
35418;SDS011;21525;41.240;16.500;2023-09-07T14:21:41;9.45;;;7.93;;
35418;SDS011;21525;41.240;16.500;2023-09-07T14:24:07;13.35;;;7.63;;
35418;SDS011;21525;41.240;16.500;2023-09-07T14:26:32;10.70;;;6.90;;
35418;SDS011;21525;41.240;16.500;2023-09-07T14:28:58;9.95;;;7.13;;
35418;SDS011;21525;41.240;16.500;2023-09-07T14:31:24;14.10;;;8.02;;